sensor_id;sensor_type;location;lat;lon;timestamp;pressure;altitude;pressure_sealevel;temperature;humidity
5812;BME280;2932;52.400;9.558;2023-03-21T00:02:11;101011.91;;;12.08;76.35
5812;BME280;2932;52.400;9.558;2023-03-21T00:04:36;101012.63;;;11.92;77.01
5812;BME280;2932;52.400;9.558;2023-03-21T00:07:01;101008.50;;;11.65;77.85
5812;BME280;2932;52.400;9.558;2023-03-21T00:09:27;100998.34;;;11.69;77.48
5812;BME280;2932;52.400;9.558;2023-03-21T00:11:52;101007.25;;;11.75;77.72
5812;BME280;2932;52.400;9.558;2023-03-21T00:14:17;100997.41;;;11.53;78.32
5812;BME280;2932;52.400;9.558;2023-03-21T00:16:45;100999.34;;;11.41;78.96
5812;BME280;2932;52.400;9.558;2023-03-21T00:19:15;101000.63;;;11.43;79.09
5812;BME280;2932;52.400;9.558;2023-03-21T00:21:40;100999.03;;;11.54;78.04
5812;BME280;2932;52.400;9.558;2023-03-21T00:24:07;101001.16;;;11.36;78.87
5812;BME280;2932;52.400;9.558;2023-03-21T00:26:33;100997.28;;;11.62;78.26
5812;BME280;2932;52.400;9.558;2023-03-21T00:28:58;100998.50;;;12.10;77.89
5812;BME280;2932;52.400;9.558;2023-03-21T00:31:24;100991.34;;;11.84;77.58
5812;BME280;2932;52.400;9.558;2023-03-21T00:33:49;100987.09;;;11.87;77.69
5812;BME280;2932;52.400;9.558;2023-03-21T00:36:15;100990.75;;;12.03;77.34
5812;BME280;2932;52.400;9.558;2023-03-21T00:38:41;100983.19;;;11.43;78.36
5812;BME280;2932;52.400;9.558;2023-03-21T00:41:08;100978.91;;;11.45;78.71
5812;BME280;2932;52.400;9.558;2023-03-21T00:43:35;100980.78;;;11.53;78.01
5812;BME280;2932;52.400;9.558;2023-03-21T00:46:00;100977.81;;;11.25;79.27
5812;BME280;2932;52.400;9.558;2023-03-21T00:48:26;100976.81;;;11.87;77.59
5812;BME280;2932;52.400;9.558;2023-03-21T00:50:53;100977.63;;;11.88;77.59
5812;BME280;2932;52.400;9.558;2023-03-21T00:53:20;100975.25;;;11.53;78.23
5812;BME280;2932;52.400;9.558;2023-03-21T00:55:46;100968.66;;;11.70;77.99
5812;BME280;2932;52.400;9.558;2023-03-21T00:58:11;100972.78;;;11.97;77.84
5812;BME280;2932;52.400;9.558;2023-03-21T01:00:37;100974.69;;;12.09;76.66
5812;BME280;2932;52.400;9.558;2023-03-21T01:03:07;100974.63;;;11.93;76.80
5812;BME280;2932;52.400;9.558;2023-03-21T01:05:36;100956.88;;;11.49;78.24
5812;BME280;2932;52.400;9.558;2023-03-21T01:08:21;100962.31;;;11.69;77.86
5812;BME280;2932;52.400;9.558;2023-03-21T01:10:48;100971.94;;;12.21;77.16
5812;BME280;2932;52.400;9.558;2023-03-21T01:13:16;100969.28;;;12.12;77.01
5812;BME280;2932;52.400;9.558;2023-03-21T01:15:44;100964.06;;;12.11;77.18
5812;BME280;2932;52.400;9.558;2023-03-21T01:18:11;100964.06;;;12.23;76.56
5812;BME280;2932;52.400;9.558;2023-03-21T01:20:36;100961.78;;;11.88;77.25
5812;BME280;2932;52.400;9.558;2023-03-21T01:23:02;100961.19;;;12.19;76.45
5812;BME280;2932;52.400;9.558;2023-03-21T01:25:27;100959.78;;;12.13;76.40
5812;BME280;2932;52.400;9.558;2023-03-21T01:27:52;100957.84;;;12.14;76.21
5812;BME280;2932;52.400;9.558;2023-03-21T01:30:19;100963.94;;;12.31;76.22
5812;BME280;2932;52.400;9.558;2023-03-21T01:32:45;100954.78;;;12.43;75.88
5812;BME280;2932;52.400;9.558;2023-03-21T01:35:10;100958.66;;;12.14;76.46
5812;BME280;2932;52.400;9.558;2023-03-21T01:37:35;100958.97;;;12.25;76.61
5812;BME280;2932;52.400;9.558;2023-03-21T01:40:01;100957.81;;;12.26;76.00
5812;BME280;2932;52.400;9.558;2023-03-21T01:42:28;100948.34;;;12.39;76.35
5812;BME280;2932;52.400;9.558;2023-03-21T01:45:00;100949.78;;;12.49;75.92
5812;BME280;2932;52.400;9.558;2023-03-21T01:47:27;100944.97;;;12.33;76.19
5812;BME280;2932;52.400;9.558;2023-03-21T01:49:55;100953.00;;;12.63;75.51
5812;BME280;2932;52.400;9.558;2023-03-21T01:52:36;100946.75;;;12.66;75.01
5812;BME280;2932;52.400;9.558;2023-03-21T01:55:05;100945.81;;;12.62;74.71
5812;BME280;2932;52.400;9.558;2023-03-21T01:57:39;100940.41;;;12.81;74.69
5812;BME280;2932;52.400;9.558;2023-03-21T02:00:07;100944.75;;;12.39;75.20
5812;BME280;2932;52.400;9.558;2023-03-21T02:02:38;100944.41;;;12.68;75.30
5812;BME280;2932;52.400;9.558;2023-03-21T02:05:21;100936.72;;;12.49;75.06
5812;BME280;2932;52.400;9.558;2023-03-21T02:07:51;100945.81;;;12.10;76.67
5812;BME280;2932;52.400;9.558;2023-03-21T02:10:20;100938.97;;;12.31;76.20
5812;BME280;2932;52.400;9.558;2023-03-21T02:12:45;100930.16;;;12.42;75.62
5812;BME280;2932;52.400;9.558;2023-03-21T02:15:11;100928.34;;;12.33;76.21
5812;BME280;2932;52.400;9.558;2023-03-21T02:17:50;100928.16;;;12.82;75.38
5812;BME280;2932;52.400;9.558;2023-03-21T02:28:33;100924.81;;;12.49;75.99
5812;BME280;2932;52.400;9.558;2023-03-21T02:42:05;100903.84;;;12.63;75.63
5812;BME280;2932;52.400;9.558;2023-03-21T02:44:39;100905.25;;;12.57;75.19
5812;BME280;2932;52.400;9.558;2023-03-21T02:47:13;100904.78;;;12.03;76.81
5812;BME280;2932;52.400;9.558;2023-03-21T02:49:55;100903.13;;;12.39;76.85
5812;BME280;2932;52.400;9.558;2023-03-21T02:52:27;100912.16;;;12.23;77.26
5812;BME280;2932;52.400;9.558;2023-03-21T02:54:55;100906.41;;;12.16;76.53
5812;BME280;2932;52.400;9.558;2023-03-21T02:57:20;100901.13;;;11.99;77.58
5812;BME280;2932;52.400;9.558;2023-03-21T02:59:50;100908.81;;;12.18;77.30
5812;BME280;2932;52.400;9.558;2023-03-21T03:02:19;100893.00;;;12.18;76.87
5812;BME280;2932;52.400;9.558;2023-03-21T03:04:47;100902.91;;;12.31;76.99
5812;BME280;2932;52.400;9.558;2023-03-21T03:07:25;100901.22;;;12.43;76.33
5812;BME280;2932;52.400;9.558;2023-03-21T03:12:48;100898.53;;;12.18;76.83
5812;BME280;2932;52.400;9.558;2023-03-21T03:15:45;100889.19;;;12.51;76.45
5812;BME280;2932;52.400;9.558;2023-03-21T03:18:19;100884.69;;;12.06;77.03
5812;BME280;2932;52.400;9.558;2023-03-21T03:23:44;100885.47;;;12.19;77.14
5812;BME280;2932;52.400;9.558;2023-03-21T03:26:11;100886.06;;;12.12;77.65
5812;BME280;2932;52.400;9.558;2023-03-21T03:28:43;100888.00;;;12.24;77.42
5812;BME280;2932;52.400;9.558;2023-03-21T03:31:12;100887.00;;;12.44;76.71
5812;BME280;2932;52.400;9.558;2023-03-21T03:33:43;100873.75;;;12.65;76.22
5812;BME280;2932;52.400;9.558;2023-03-21T03:36:12;100884.22;;;12.44;76.55
5812;BME280;2932;52.400;9.558;2023-03-21T03:38:38;100886.09;;;12.00;77.48
5812;BME280;2932;52.400;9.558;2023-03-21T03:41:17;100886.16;;;12.28;76.69
5812;BME280;2932;52.400;9.558;2023-03-21T03:43:52;100886.53;;;12.14;77.41
5812;BME280;2932;52.400;9.558;2023-03-21T03:46:29;100880.66;;;12.44;76.49
5812;BME280;2932;52.400;9.558;2023-03-21T03:49:01;100876.25;;;12.43;77.05
5812;BME280;2932;52.400;9.558;2023-03-21T03:51:32;100884.88;;;12.38;76.93
5812;BME280;2932;52.400;9.558;2023-03-21T03:54:12;100879.00;;;12.55;76.36
5812;BME280;2932;52.400;9.558;2023-03-21T03:56:41;100866.69;;;12.68;75.95
5812;BME280;2932;52.400;9.558;2023-03-21T03:59:07;100872.53;;;12.79;75.96
5812;BME280;2932;52.400;9.558;2023-03-21T04:01:38;100873.16;;;12.72;76.08
5812;BME280;2932;52.400;9.558;2023-03-21T04:08:07;100879.44;;;12.85;75.82
5812;BME280;2932;52.400;9.558;2023-03-21T04:13:39;100870.72;;;12.43;76.97
5812;BME280;2932;52.400;9.558;2023-03-21T04:16:05;100875.84;;;12.84;75.99
5812;BME280;2932;52.400;9.558;2023-03-21T04:18:31;100873.88;;;12.85;75.78
5812;BME280;2932;52.400;9.558;2023-03-21T04:20:59;100877.41;;;12.42;77.04
5812;BME280;2932;52.400;9.558;2023-03-21T04:23:25;100878.41;;;12.61;77.17
5812;BME280;2932;52.400;9.558;2023-03-21T04:25:51;100870.28;;;12.68;77.09
5812;BME280;2932;52.400;9.558;2023-03-21T04:28:16;100868.16;;;12.78;76.57
5812;BME280;2932;52.400;9.558;2023-03-21T04:30:42;100869.75;;;12.23;77.33
5812;BME280;2932;52.400;9.558;2023-03-21T04:33:07;100870.28;;;12.68;77.30
5812;BME280;2932;52.400;9.558;2023-03-21T04:35:32;100868.31;;;12.69;77.21
5812;BME280;2932;52.400;9.558;2023-03-21T04:37:58;100867.50;;;12.68;76.72
5812;BME280;2932;52.400;9.558;2023-03-21T04:40:24;100865.81;;;12.80;76.53
5812;BME280;2932;52.400;9.558;2023-03-21T04:42:50;100872.31;;;13.15;75.92
5812;BME280;2932;52.400;9.558;2023-03-21T04:45:16;100856.50;;;13.16;75.63
5812;BME280;2932;52.400;9.558;2023-03-21T04:47:41;100865.88;;;13.27;74.89
5812;BME280;2932;52.400;9.558;2023-03-21T04:50:08;100860.34;;;12.83;75.52
5812;BME280;2932;52.400;9.558;2023-03-21T04:52:34;100851.22;;;12.83;75.67
5812;BME280;2932;52.400;9.558;2023-03-21T04:54:59;100859.63;;;12.86;75.75
5812;BME280;2932;52.400;9.558;2023-03-21T04:57:26;100853.13;;;12.94;75.66
5812;BME280;2932;52.400;9.558;2023-03-21T04:59:51;100851.69;;;13.00;75.18
5812;BME280;2932;52.400;9.558;2023-03-21T05:15:07;100850.50;;;12.70;76.48
5812;BME280;2932;52.400;9.558;2023-03-21T05:17:33;100853.72;;;12.88;75.78
5812;BME280;2932;52.400;9.558;2023-03-21T05:19:58;100853.84;;;13.07;75.33
5812;BME280;2932;52.400;9.558;2023-03-21T05:22:24;100854.44;;;12.69;76.05
5812;BME280;2932;52.400;9.558;2023-03-21T05:24:52;100848.72;;;12.50;76.43
5812;BME280;2932;52.400;9.558;2023-03-21T05:27:21;100852.72;;;12.64;76.71
5812;BME280;2932;52.400;9.558;2023-03-21T05:30:14;100851.84;;;12.76;76.58
5812;BME280;2932;52.400;9.558;2023-03-21T05:32:40;100850.44;;;12.54;76.87
5812;BME280;2932;52.400;9.558;2023-03-21T05:35:05;100854.78;;;12.67;76.46
5812;BME280;2932;52.400;9.558;2023-03-21T05:37:31;100850.34;;;12.51;76.71
5812;BME280;2932;52.400;9.558;2023-03-21T05:39:56;100848.38;;;12.51;76.91
5812;BME280;2932;52.400;9.558;2023-03-21T05:42:22;100847.16;;;12.80;76.17
5812;BME280;2932;52.400;9.558;2023-03-21T05:44:48;100852.13;;;12.87;75.62
5812;BME280;2932;52.400;9.558;2023-03-21T05:47:15;100845.19;;;12.81;75.68
5812;BME280;2932;52.400;9.558;2023-03-21T05:49:41;100848.06;;;12.84;75.85
5812;BME280;2932;52.400;9.558;2023-03-21T05:52:07;100850.22;;;12.75;76.04
5812;BME280;2932;52.400;9.558;2023-03-21T05:54:32;100845.91;;;12.62;76.74
5812;BME280;2932;52.400;9.558;2023-03-21T05:56:58;100845.59;;;12.79;76.69
5812;BME280;2932;52.400;9.558;2023-03-21T05:59:23;100853.53;;;12.81;76.43
5812;BME280;2932;52.400;9.558;2023-03-21T06:01:49;100852.34;;;12.66;76.55
5812;BME280;2932;52.400;9.558;2023-03-21T06:04:14;100854.91;;;13.02;75.61
5812;BME280;2932;52.400;9.558;2023-03-21T06:06:40;100851.50;;;12.50;76.53
5812;BME280;2932;52.400;9.558;2023-03-21T06:09:05;100849.34;;;12.87;76.34
5812;BME280;2932;52.400;9.558;2023-03-21T06:11:34;100857.91;;;12.82;76.15
5812;BME280;2932;52.400;9.558;2023-03-21T06:14:00;100856.16;;;12.89;75.76
5812;BME280;2932;52.400;9.558;2023-03-21T06:16:25;100853.25;;;12.70;76.44
5812;BME280;2932;52.400;9.558;2023-03-21T06:18:52;100857.97;;;12.97;75.07
5812;BME280;2932;52.400;9.558;2023-03-21T06:21:18;100850.84;;;12.84;76.01
5812;BME280;2932;52.400;9.558;2023-03-21T06:23:43;100850.50;;;12.70;76.75
5812;BME280;2932;52.400;9.558;2023-03-21T06:26:09;100862.81;;;13.00;76.04
5812;BME280;2932;52.400;9.558;2023-03-21T06:28:35;100853.81;;;12.91;75.82
5812;BME280;2932;52.400;9.558;2023-03-21T06:31:00;100849.44;;;12.75;76.33
5812;BME280;2932;52.400;9.558;2023-03-21T06:33:25;100853.47;;;12.93;75.84
5812;BME280;2932;52.400;9.558;2023-03-21T06:35:52;100849.94;;;12.80;75.56
5812;BME280;2932;52.400;9.558;2023-03-21T06:38:17;100853.63;;;12.84;75.70
5812;BME280;2932;52.400;9.558;2023-03-21T06:40:45;100858.78;;;12.98;75.43
5812;BME280;2932;52.400;9.558;2023-03-21T06:43:10;100860.09;;;12.88;75.37
5812;BME280;2932;52.400;9.558;2023-03-21T06:45:35;100859.41;;;13.07;75.04
5812;BME280;2932;52.400;9.558;2023-03-21T06:48:01;100860.22;;;13.08;74.42
5812;BME280;2932;52.400;9.558;2023-03-21T06:50:26;100854.44;;;12.69;75.80
5812;BME280;2932;52.400;9.558;2023-03-21T06:52:51;100855.69;;;12.87;75.30
5812;BME280;2932;52.400;9.558;2023-03-21T06:55:17;100859.38;;;13.19;73.95
5812;BME280;2932;52.400;9.558;2023-03-21T06:57:43;100853.81;;;13.19;73.49
5812;BME280;2932;52.400;9.558;2023-03-21T07:00:10;100864.81;;;13.31;73.63
5812;BME280;2932;52.400;9.558;2023-03-21T07:02:35;100860.94;;;13.20;73.40
5812;BME280;2932;52.400;9.558;2023-03-21T07:05:01;100857.97;;;12.97;74.17
5812;BME280;2932;52.400;9.558;2023-03-21T07:07:26;100866.75;;;12.99;74.01
5812;BME280;2932;52.400;9.558;2023-03-21T07:09:53;100859.06;;;13.09;73.47
5812;BME280;2932;52.400;9.558;2023-03-21T07:12:19;100869.72;;;13.07;73.44
5812;BME280;2932;52.400;9.558;2023-03-21T07:14:44;100861.69;;;12.89;73.92
5812;BME280;2932;52.400;9.558;2023-03-21T07:17:10;100858.16;;;12.61;74.96
5812;BME280;2932;52.400;9.558;2023-03-21T07:19:35;100855.25;;;12.85;74.67
5812;BME280;2932;52.400;9.558;2023-03-21T07:22:01;100861.56;;;13.14;74.06
5812;BME280;2932;52.400;9.558;2023-03-21T07:24:26;100872.63;;;13.57;72.85
5812;BME280;2932;52.400;9.558;2023-03-21T07:26:52;100857.41;;;12.92;74.28
5812;BME280;2932;52.400;9.558;2023-03-21T07:29:18;100859.38;;;13.19;74.04
5812;BME280;2932;52.400;9.558;2023-03-21T07:31:45;100865.81;;;13.55;72.65
5812;BME280;2932;52.400;9.558;2023-03-21T07:34:11;100852.50;;;13.01;73.56
5812;BME280;2932;52.400;9.558;2023-03-21T07:36:36;100860.41;;;13.62;72.25
5812;BME280;2932;52.400;9.558;2023-03-21T07:39:02;100858.47;;;13.47;72.43
5812;BME280;2932;52.400;9.558;2023-03-21T07:41:28;100859.13;;;14.10;71.39
5812;BME280;2932;52.400;9.558;2023-03-21T07:43:53;100855.91;;;13.73;70.71
5812;BME280;2932;52.400;9.558;2023-03-21T07:46:19;100855.38;;;13.67;71.85
5812;BME280;2932;52.400;9.558;2023-03-21T07:48:44;100861.44;;;13.89;72.04
5812;BME280;2932;52.400;9.558;2023-03-21T07:51:10;100857.50;;;13.90;71.69
5812;BME280;2932;52.400;9.558;2023-03-21T07:53:35;100850.69;;;13.72;71.40
5812;BME280;2932;52.400;9.558;2023-03-21T07:56:00;100847.44;;;13.34;72.42
5812;BME280;2932;52.400;9.558;2023-03-21T07:58:26;100849.56;;;13.25;72.60
5812;BME280;2932;52.400;9.558;2023-03-21T08:00:53;100858.38;;;13.43;72.39
5812;BME280;2932;52.400;9.558;2023-03-21T08:03:20;100846.44;;;13.43;72.75
5812;BME280;2932;52.400;9.558;2023-03-21T08:05:47;100850.03;;;13.59;71.83
5812;BME280;2932;52.400;9.558;2023-03-21T08:08:13;100857.69;;;13.65;71.80
5812;BME280;2932;52.400;9.558;2023-03-21T08:10:41;100852.75;;;13.75;71.88
5812;BME280;2932;52.400;9.558;2023-03-21T08:13:06;100855.13;;;13.57;72.16
5812;BME280;2932;52.400;9.558;2023-03-21T08:15:32;100851.47;;;13.88;71.02
5812;BME280;2932;52.400;9.558;2023-03-21T08:17:58;100854.53;;;13.83;71.26
5812;BME280;2932;52.400;9.558;2023-03-21T08:20:24;100847.25;;;14.13;70.78
5812;BME280;2932;52.400;9.558;2023-03-21T08:22:50;100860.34;;;13.58;71.44
5812;BME280;2932;52.400;9.558;2023-03-21T08:25:16;100851.81;;;13.35;72.44
5812;BME280;2932;52.400;9.558;2023-03-21T08:27:44;100843.75;;;13.46;71.84
5812;BME280;2932;52.400;9.558;2023-03-21T08:30:11;100847.31;;;13.62;72.49
5812;BME280;2932;52.400;9.558;2023-03-21T08:32:37;100847.69;;;13.45;72.26
5812;BME280;2932;52.400;9.558;2023-03-21T08:35:04;100857.69;;;13.65;72.06
5812;BME280;2932;52.400;9.558;2023-03-21T08:37:31;100859.88;;;13.41;72.46
5812;BME280;2932;52.400;9.558;2023-03-21T08:39:56;100856.81;;;13.61;72.42
5812;BME280;2932;52.400;9.558;2023-03-21T08:42:21;100848.41;;;13.93;71.42
5812;BME280;2932;52.400;9.558;2023-03-21T08:44:47;100852.13;;;14.00;71.30
5812;BME280;2932;52.400;9.558;2023-03-21T08:47:13;100850.28;;;13.38;72.33
5812;BME280;2932;52.400;9.558;2023-03-21T08:49:39;100856.53;;;13.66;72.26
5812;BME280;2932;52.400;9.558;2023-03-21T08:52:05;100852.66;;;13.87;71.25
5812;BME280;2932;52.400;9.558;2023-03-21T08:54:30;100847.81;;;14.03;71.10
5812;BME280;2932;52.400;9.558;2023-03-21T08:56:56;100840.44;;;13.91;71.31
5812;BME280;2932;52.400;9.558;2023-03-21T08:59:21;100847.22;;;14.29;70.63
5812;BME280;2932;52.400;9.558;2023-03-21T09:01:46;100857.34;;;13.67;71.56
5812;BME280;2932;52.400;9.558;2023-03-21T09:04:12;100853.38;;;13.84;71.68
5812;BME280;2932;52.400;9.558;2023-03-21T09:06:39;100847.00;;;14.38;70.94
5812;BME280;2932;52.400;9.558;2023-03-21T09:09:14;100856.00;;;14.31;70.17
5812;BME280;2932;52.400;9.558;2023-03-21T09:11:40;100854.03;;;14.51;69.74
5812;BME280;2932;52.400;9.558;2023-03-21T09:14:06;100853.31;;;14.54;69.02
5812;BME280;2932;52.400;9.558;2023-03-21T09:16:31;100844.72;;;14.24;69.61
5812;BME280;2932;52.400;9.558;2023-03-21T09:18:57;100846.34;;;14.44;69.64
5812;BME280;2932;52.400;9.558;2023-03-21T09:21:24;100847.00;;;14.57;69.15
5812;BME280;2932;52.400;9.558;2023-03-21T09:23:51;100845.97;;;14.46;69.45
5812;BME280;2932;52.400;9.558;2023-03-21T09:26:19;100845.97;;;14.46;69.23
5812;BME280;2932;52.400;9.558;2023-03-21T09:28:44;100843.75;;;13.97;70.28
5812;BME280;2932;52.400;9.558;2023-03-21T09:31:13;100842.13;;;14.15;70.38
5812;BME280;2932;52.400;9.558;2023-03-21T09:33:41;100845.88;;;14.23;69.88
5812;BME280;2932;52.400;9.558;2023-03-21T09:36:08;100845.53;;;14.63;69.48
5812;BME280;2932;52.400;9.558;2023-03-21T09:38:42;100847.56;;;14.27;70.53
5812;BME280;2932;52.400;9.558;2023-03-21T09:44:38;100837.78;;;14.53;69.96
5812;BME280;2932;52.400;9.558;2023-03-21T09:47:23;100843.63;;;14.48;69.79
5812;BME280;2932;52.400;9.558;2023-03-21T09:50:03;100848.97;;;14.56;69.75
5812;BME280;2932;52.400;9.558;2023-03-21T09:52:56;100840.69;;;14.21;70.92
5812;BME280;2932;52.400;9.558;2023-03-21T09:55:25;100855.56;;;14.48;69.77
5812;BME280;2932;52.400;9.558;2023-03-21T09:58:44;100850.50;;;14.15;70.81
5812;BME280;2932;52.400;9.558;2023-03-21T10:00:52;100854.09;;;14.74;69.26
5812;BME280;2932;52.400;9.558;2023-03-21T10:03:29;100856.78;;;14.12;71.04
5812;BME280;2932;52.400;9.558;2023-03-21T10:05:57;100846.84;;;13.60;72.43
5812;BME280;2932;52.400;9.558;2023-03-21T10:08:31;100851.38;;;14.19;71.09
5812;BME280;2932;52.400;9.558;2023-03-21T10:11:26;100850.38;;;14.47;71.20
5812;BME280;2932;52.400;9.558;2023-03-21T10:13:54;100842.09;;;14.70;70.26
5812;BME280;2932;52.400;9.558;2023-03-21T10:16:29;100841.34;;;14.73;70.42
5812;BME280;2932;52.400;9.558;2023-03-21T10:18:56;100836.88;;;14.68;70.40
5812;BME280;2932;52.400;9.558;2023-03-21T10:21:23;100841.00;;;14.35;71.21
5812;BME280;2932;52.400;9.558;2023-03-21T10:23:51;100827.41;;;14.15;72.18
5812;BME280;2932;52.400;9.558;2023-03-21T10:26:18;100833.88;;;14.57;71.34
5812;BME280;2932;52.400;9.558;2023-03-21T10:28:45;100826.78;;;14.60;70.73
5812;BME280;2932;52.400;9.558;2023-03-21T10:31:15;100824.88;;;14.64;70.94
5812;BME280;2932;52.400;9.558;2023-03-21T10:33:43;100824.16;;;14.90;69.79
5812;BME280;2932;52.400;9.558;2023-03-21T10:36:12;100824.63;;;14.15;71.06
5812;BME280;2932;52.400;9.558;2023-03-21T10:38:44;100821.28;;;14.44;70.81
5812;BME280;2932;52.400;9.558;2023-03-21T10:41:10;100820.03;;;14.22;71.26
5812;BME280;2932;52.400;9.558;2023-03-21T10:43:37;100824.44;;;14.23;71.70
5812;BME280;2932;52.400;9.558;2023-03-21T10:46:10;100829.97;;;14.04;72.96
5812;BME280;2932;52.400;9.558;2023-03-21T10:48:38;100830.59;;;13.78;73.52
5812;BME280;2932;52.400;9.558;2023-03-21T10:51:07;100831.19;;;14.42;72.89
5812;BME280;2932;52.400;9.558;2023-03-21T10:53:40;100823.75;;;14.11;74.18
5812;BME280;2932;52.400;9.558;2023-03-21T10:56:11;100824.88;;;14.25;73.92
5812;BME280;2932;52.400;9.558;2023-03-21T10:58:44;100822.78;;;14.03;74.62
5812;BME280;2932;52.400;9.558;2023-03-21T11:01:13;100814.84;;;14.21;75.34
5812;BME280;2932;52.400;9.558;2023-03-21T11:03:44;100812.50;;;13.68;76.37
5812;BME280;2932;52.400;9.558;2023-03-21T11:06:16;100827.34;;;13.41;77.83
5812;BME280;2932;52.400;9.558;2023-03-21T11:08:49;100811.97;;;14.37;76.03
5812;BME280;2932;52.400;9.558;2023-03-21T11:11:21;100814.72;;;13.79;77.62
5812;BME280;2932;52.400;9.558;2023-03-21T11:13:59;100809.72;;;13.68;77.10
5812;BME280;2932;52.400;9.558;2023-03-21T11:16:30;100813.94;;;13.97;76.52
5812;BME280;2932;52.400;9.558;2023-03-21T11:19:02;100799.06;;;13.90;77.14
5812;BME280;2932;52.400;9.558;2023-03-21T11:21:35;100803.19;;;14.15;76.54
5812;BME280;2932;52.400;9.558;2023-03-21T11:24:01;100798.44;;;14.35;76.10
5812;BME280;2932;52.400;9.558;2023-03-21T11:26:32;100802.47;;;14.57;75.36
5812;BME280;2932;52.400;9.558;2023-03-21T11:29:49;100799.03;;;14.44;74.89
5812;BME280;2932;52.400;9.558;2023-03-21T11:32:00;100801.69;;;14.79;74.90
5812;BME280;2932;52.400;9.558;2023-03-21T11:34:27;100801.69;;;14.41;75.33
5812;BME280;2932;52.400;9.558;2023-03-21T11:36:58;100801.13;;;15.16;74.28
5812;BME280;2932;52.400;9.558;2023-03-21T11:39:29;100801.41;;;14.65;74.59
5812;BME280;2932;52.400;9.558;2023-03-21T11:41:55;100790.84;;;14.97;73.98
5812;BME280;2932;52.400;9.558;2023-03-21T11:44:43;100797.13;;;14.29;74.66
5812;BME280;2932;52.400;9.558;2023-03-21T11:47:10;100791.53;;;14.67;74.10
5812;BME280;2932;52.400;9.558;2023-03-21T11:49:35;100796.44;;;14.74;74.06
5812;BME280;2932;52.400;9.558;2023-03-21T11:52:03;100781.00;;;14.80;73.97
5812;BME280;2932;52.400;9.558;2023-03-21T12:00:37;100785.28;;;14.74;73.99
5812;BME280;2932;52.400;9.558;2023-03-21T12:03:07;100782.59;;;14.39;74.97
5812;BME280;2932;52.400;9.558;2023-03-21T12:06:00;100769.47;;;14.40;75.39
5812;BME280;2932;52.400;9.558;2023-03-21T12:14:15;100773.16;;;15.09;73.50
5812;BME280;2932;52.400;9.558;2023-03-21T12:17:01;100778.09;;;14.96;73.74
5812;BME280;2932;52.400;9.558;2023-03-21T12:24:36;100753.97;;;14.39;74.78
5812;BME280;2932;52.400;9.558;2023-03-21T12:33:13;100752.97;;;14.92;73.90
5812;BME280;2932;52.400;9.558;2023-03-21T12:38:17;100745.72;;;14.88;74.89
5812;BME280;2932;52.400;9.558;2023-03-21T12:46:16;100740.94;;;15.11;73.87
5812;BME280;2932;52.400;9.558;2023-03-21T12:49:07;100736.75;;;15.24;74.28
5812;BME280;2932;52.400;9.558;2023-03-21T12:51:38;100729.69;;;14.81;74.48
5812;BME280;2932;52.400;9.558;2023-03-21T12:54:16;100732.53;;;14.85;75.53
5812;BME280;2932;52.400;9.558;2023-03-21T12:56:52;100730.03;;;15.02;74.53
5812;BME280;2932;52.400;9.558;2023-03-21T12:59:27;100735.81;;;14.90;74.70
5812;BME280;2932;52.400;9.558;2023-03-21T13:01:59;100722.75;;;15.21;73.39
5812;BME280;2932;52.400;9.558;2023-03-21T13:07:07;100718.91;;;15.29;73.75
5812;BME280;2932;52.400;9.558;2023-03-21T13:09:37;100715.56;;;15.20;73.24
5812;BME280;2932;52.400;9.558;2023-03-21T13:12:21;100711.28;;;14.99;73.71
5812;BME280;2932;52.400;9.558;2023-03-21T13:14:58;100710.00;;;15.20;73.81
5812;BME280;2932;52.400;9.558;2023-03-21T13:17:33;100708.16;;;14.55;75.48
5812;BME280;2932;52.400;9.558;2023-03-21T13:20:09;100709.91;;;14.63;74.69
5812;BME280;2932;52.400;9.558;2023-03-21T13:22:38;100704.97;;;15.02;74.90
5812;BME280;2932;52.400;9.558;2023-03-21T13:25:20;100705.28;;;14.97;74.50
5812;BME280;2932;52.400;9.558;2023-03-21T13:27:51;100706.94;;;14.76;74.40
5812;BME280;2932;52.400;9.558;2023-03-21T13:32:46;100693.97;;;14.87;75.34
5812;BME280;2932;52.400;9.558;2023-03-21T13:35:22;100698.78;;;14.90;74.81
5812;BME280;2932;52.400;9.558;2023-03-21T13:37:58;100691.97;;;14.87;74.39
5812;BME280;2932;52.400;9.558;2023-03-21T13:40:26;100687.69;;;14.93;73.95
5812;BME280;2932;52.400;9.558;2023-03-21T13:42:55;100692.72;;;14.84;74.22
5812;BME280;2932;52.400;9.558;2023-03-21T13:45:59;100693.53;;;14.85;74.40
5812;BME280;2932;52.400;9.558;2023-03-21T13:48:29;100696.97;;;15.01;73.90
5812;BME280;2932;52.400;9.558;2023-03-21T13:51:03;100687.66;;;14.90;73.94
5812;BME280;2932;52.400;9.558;2023-03-21T13:53:36;100691.34;;;14.71;74.92
5812;BME280;2932;52.400;9.558;2023-03-21T13:59:00;100681.31;;;14.66;75.17
5812;BME280;2932;52.400;9.558;2023-03-21T14:01:28;100682.06;;;14.90;74.66
5812;BME280;2932;52.400;9.558;2023-03-21T14:04:05;100674.47;;;14.87;75.50
5812;BME280;2932;52.400;9.558;2023-03-21T14:09:03;100676.78;;;14.35;76.07
5812;BME280;2932;52.400;9.558;2023-03-21T14:11:31;100673.41;;;14.26;77.50
5812;BME280;2932;52.400;9.558;2023-03-21T14:13:59;100667.78;;;14.23;77.63
5812;BME280;2932;52.400;9.558;2023-03-21T14:16:26;100666.00;;;14.34;77.38
5812;BME280;2932;52.400;9.558;2023-03-21T14:18:59;100661.88;;;14.47;77.18
5812;BME280;2932;52.400;9.558;2023-03-21T14:21:32;100666.75;;;14.54;77.39
5812;BME280;2932;52.400;9.558;2023-03-21T14:26:31;100666.13;;;14.41;77.32
5812;BME280;2932;52.400;9.558;2023-03-21T14:28:57;100663.97;;;14.77;76.30
5812;BME280;2932;52.400;9.558;2023-03-21T14:31:23;100668.00;;;14.79;75.55
5812;BME280;2932;52.400;9.558;2023-03-21T14:33:54;100656.19;;;14.63;76.02
5812;BME280;2932;52.400;9.558;2023-03-21T14:36:24;100656.94;;;14.86;75.85
5812;BME280;2932;52.400;9.558;2023-03-21T14:39:26;100658.03;;;14.78;76.28
5812;BME280;2932;52.400;9.558;2023-03-21T14:41:54;100649.88;;;14.92;75.79
5812;BME280;2932;52.400;9.558;2023-03-21T14:46:57;100642.53;;;14.81;76.25
5812;BME280;2932;52.400;9.558;2023-03-21T14:49:25;100625.41;;;14.79;76.05
5812;BME280;2932;52.400;9.558;2023-03-21T14:51:57;100628.19;;;14.79;76.09
5812;BME280;2932;52.400;9.558;2023-03-21T14:54:24;100631.94;;;14.90;75.08
5812;BME280;2932;52.400;9.558;2023-03-21T14:57:03;100619.97;;;15.16;74.82